createdAt,value
2022-08-02T00:02:34.825Z,16.90
2022-08-02T00:05:23.509Z,16.80
2022-08-02T00:08:12.261Z,16.80
2022-08-02T00:11:00.955Z,16.90
2022-08-02T00:13:49.794Z,16.90
2022-08-02T00:16:39.888Z,16.90
2022-08-02T00:19:28.684Z,16.90
2022-08-02T00:22:17.412Z,16.90
2022-08-02T00:25:06.600Z,16.90
2022-08-02T00:27:55.275Z,16.80
2022-08-02T00:30:44.176Z,16.80
2022-08-02T00:34:04.880Z,16.80
2022-08-02T00:36:42.976Z,16.80
2022-08-02T00:39:35.149Z,16.80
2022-08-02T00:42:24.465Z,16.70
2022-08-02T00:45:13.151Z,16.70
2022-08-02T00:48:01.929Z,16.70
2022-08-02T00:50:52.017Z,16.60
2022-08-02T00:53:41.141Z,16.60
2022-08-02T00:56:29.792Z,16.60
2022-08-02T00:59:18.639Z,16.60
2022-08-02T01:02:07.378Z,16.60
2022-08-02T01:04:56.093Z,16.60
2022-08-02T01:07:46.213Z,16.50
2022-08-02T01:10:35.065Z,16.50
2022-08-02T01:13:23.874Z,16.50
2022-08-02T01:16:17.453Z,16.50
2022-08-02T01:19:16.091Z,16.40
2022-08-02T01:22:58.588Z,16.40
2022-08-02T01:25:54.398Z,16.40
2022-08-02T01:28:50.617Z,16.30
2022-08-02T01:31:45.782Z,16.20
2022-08-02T01:34:38.598Z,16.20
2022-08-02T01:37:32.879Z,16.20
2022-08-02T01:40:27.168Z,16.20
2022-08-02T01:43:16.695Z,16.20
2022-08-02T01:46:07.606Z,16.20
2022-08-02T01:48:58.096Z,16.20
2022-08-02T01:52:07.153Z,16.20
2022-08-02T01:55:01.279Z,16.20
2022-08-02T01:57:53.642Z,16.10
2022-08-02T02:00:43.884Z,16.10
2022-08-02T02:03:35.494Z,16.00
2022-08-02T02:06:30.856Z,16.00
2022-08-02T02:09:21.189Z,16.00
2022-08-02T02:12:14.798Z,15.90
2022-08-02T02:15:04.712Z,15.90
2022-08-02T02:18:13.100Z,15.90
2022-08-02T02:21:03.936Z,15.80
2022-08-02T02:23:52.722Z,15.80
2022-08-02T02:26:52.039Z,15.80
2022-08-02T02:29:48.514Z,15.80
2022-08-02T02:32:38.007Z,15.80
2022-08-02T02:35:30.743Z,15.80
2022-08-02T02:38:22.716Z,15.80
2022-08-02T02:41:12.173Z,15.80
2022-08-02T02:44:04.203Z,15.80
2022-08-02T02:46:55.653Z,15.80
2022-08-02T02:49:47.547Z,15.80
2022-08-02T02:52:38.085Z,15.80
2022-08-02T02:55:29.737Z,15.80
2022-08-02T02:58:18.866Z,15.70
2022-08-02T03:01:56.981Z,15.80
2022-08-02T03:04:57.267Z,15.80
2022-08-02T03:07:46.647Z,15.70
2022-08-02T03:10:36.941Z,15.80
2022-08-02T03:13:26.291Z,15.70
2022-08-02T03:16:22.025Z,15.70
2022-08-02T03:19:10.712Z,15.70
2022-08-02T03:21:59.401Z,15.60
2022-08-02T03:24:48.758Z,15.60
2022-08-02T03:27:39.009Z,15.60
2022-08-02T03:30:28.101Z,15.60
2022-08-02T03:33:17.107Z,15.60
2022-08-02T03:36:09.727Z,15.60
2022-08-02T03:38:59.121Z,15.60
2022-08-02T03:41:49.788Z,15.60
2022-08-02T03:44:40.692Z,15.50
2022-08-02T03:47:30.677Z,15.50
2022-08-02T03:50:23.068Z,15.50
2022-08-02T03:53:19.939Z,15.50
2022-08-02T03:56:09.304Z,15.50
2022-08-02T03:59:08.580Z,15.40
2022-08-02T04:01:58.934Z,15.30
2022-08-02T04:04:52.051Z,15.30
2022-08-02T04:08:36.197Z,15.30
2022-08-02T04:11:07.468Z,15.30
2022-08-02T04:13:56.944Z,15.30
2022-08-02T04:16:47.888Z,15.30
2022-08-02T04:19:41.953Z,15.30
2022-08-02T04:22:36.662Z,15.30
2022-08-02T04:25:35.350Z,15.40
2022-08-02T04:28:30.152Z,15.40
2022-08-02T04:31:19.887Z,15.50
2022-08-02T04:34:08.729Z,15.60
2022-08-02T04:36:59.917Z,15.60
2022-08-02T04:39:48.597Z,15.60
2022-08-02T04:42:37.354Z,15.70
2022-08-02T04:45:27.113Z,15.70
2022-08-02T04:48:16.039Z,15.70
2022-08-02T04:51:05.064Z,15.80
2022-08-02T04:53:55.163Z,15.70
2022-08-02T04:56:54.898Z,15.70
2022-08-02T04:59:43.546Z,15.70
2022-08-02T05:02:32.271Z,15.70
2022-08-02T05:05:21.222Z,15.70
2022-08-02T05:08:09.920Z,15.80
2022-08-02T05:11:00.059Z,15.80
2022-08-02T05:13:57.896Z,15.90
2022-08-02T05:16:48.052Z,15.90
2022-08-02T05:19:36.705Z,16.00
2022-08-02T05:22:25.468Z,16.00
2022-08-02T05:25:14.621Z,16.10
2022-08-02T05:28:08.341Z,16.10
2022-08-02T05:31:00.102Z,16.20
2022-08-02T05:33:48.797Z,16.30
2022-08-02T05:36:37.504Z,16.40
2022-08-02T05:39:31.870Z,16.50
2022-08-02T05:42:20.757Z,16.60
2022-08-02T05:45:12.185Z,16.70
2022-08-02T05:48:03.971Z,16.90
2022-08-02T05:50:59.820Z,17.00
2022-08-02T05:53:52.572Z,17.00
2022-08-02T05:56:48.716Z,17.10
2022-08-02T05:59:45.717Z,17.10
2022-08-02T06:02:46.493Z,17.00
2022-08-02T06:05:41.224Z,17.00
2022-08-02T06:08:34.313Z,17.10
2022-08-02T06:11:24.298Z,17.20
2022-08-02T06:14:13.936Z,17.40
2022-08-02T06:17:05.850Z,17.50
2022-08-02T06:19:58.624Z,17.70
2022-08-02T06:22:48.351Z,18.00
2022-08-02T06:25:50.997Z,18.20
2022-08-02T06:28:41.219Z,18.40
2022-08-02T06:31:30.439Z,18.60
2022-08-02T06:34:19.098Z,18.80
2022-08-02T06:37:16.944Z,19.00
2022-08-02T06:40:12.811Z,19.30
2022-08-02T06:43:14.205Z,19.50
2022-08-02T06:46:57.432Z,19.60
2022-08-02T06:49:12.402Z,19.80
2022-08-02T06:52:01.220Z,20.00
2022-08-02T06:54:51.329Z,20.20
2022-08-02T06:57:40.067Z,20.30
2022-08-02T07:00:30.275Z,20.50
2022-08-02T07:03:19.328Z,20.60
2022-08-02T07:06:09.388Z,20.90
2022-08-02T07:09:19.498Z,21.20
2022-08-02T07:12:09.268Z,21.20
2022-08-02T07:14:58.662Z,21.40
2022-08-02T07:17:47.393Z,21.50
2022-08-02T07:20:36.096Z,21.60
2022-08-02T07:23:24.976Z,21.60
2022-08-02T07:26:13.817Z,21.80
2022-08-02T07:29:04.709Z,21.80
2022-08-02T07:31:53.452Z,22.00
2022-08-02T07:34:42.608Z,22.00
2022-08-02T07:37:53.358Z,22.10
2022-08-02T07:41:13.771Z,22.20
2022-08-02T07:52:43.714Z,22.50
2022-08-02T07:55:39.907Z,22.50
2022-08-02T07:58:29.275Z,22.40
2022-08-02T08:01:18.659Z,22.60
2022-08-02T08:04:07.626Z,22.70
2022-08-02T08:06:56.375Z,22.90
2022-08-02T08:09:47.600Z,23.00
2022-08-02T08:12:36.377Z,23.00
2022-08-02T08:15:25.421Z,23.10
2022-08-02T08:18:14.179Z,23.30
2022-08-02T08:21:04.262Z,23.50
2022-08-02T08:23:53.140Z,23.60
2022-08-02T08:26:43.231Z,23.60
2022-08-02T08:29:31.958Z,23.80
2022-08-02T08:32:21.240Z,23.90
2022-08-02T08:35:10.375Z,23.80
2022-08-02T08:38:00.431Z,23.60
2022-08-02T08:40:52.033Z,24.10
2022-08-02T08:43:42.184Z,25.10
2022-08-02T08:46:32.653Z,26.00
2022-08-02T08:49:27.539Z,26.60
2022-08-02T08:52:17.563Z,27.00
2022-08-02T08:55:09.406Z,27.30
2022-08-02T09:02:19.591Z,26.50
2022-08-02T09:05:12.907Z,26.00
2022-08-02T09:08:13.457Z,25.80
2022-08-02T09:11:16.194Z,25.80
2022-08-02T09:14:07.926Z,25.70
2022-08-02T09:17:12.748Z,25.60
2022-08-02T09:20:09.773Z,25.50
2022-08-02T09:23:08.424Z,25.30
2022-08-02T09:26:00.881Z,25.20
2022-08-02T09:28:53.697Z,25.40
2022-08-02T09:31:45.720Z,25.50
2022-08-02T09:34:51.431Z,25.40
2022-08-02T09:37:40.241Z,25.20
2022-08-02T09:40:37.536Z,25.20
2022-08-02T09:44:03.871Z,25.10
2022-08-02T09:46:52.926Z,25.20
2022-08-02T09:49:52.332Z,25.50
2022-08-02T09:52:45.048Z,25.60
2022-08-02T09:55:33.868Z,25.70
2022-08-02T09:58:23.093Z,26.00
2022-08-02T10:01:12.147Z,26.30
2022-08-02T10:04:05.396Z,26.20
2022-08-02T10:06:55.493Z,26.10
2022-08-02T10:09:47.659Z,26.20
2022-08-02T10:12:37.960Z,26.10
2022-08-02T10:15:27.624Z,26.00
2022-08-02T10:18:37.113Z,25.90
2022-08-02T10:21:30.936Z,26.00
2022-08-02T10:24:22.245Z,25.90
2022-08-02T10:27:17.202Z,26.10
2022-08-02T10:30:07.361Z,26.20
2022-08-02T10:32:59.017Z,26.30
2022-08-02T10:36:04.516Z,26.10
2022-08-02T10:38:58.830Z,25.90
2022-08-02T10:41:49.670Z,25.90
2022-08-02T10:44:40.513Z,25.90
2022-08-02T10:47:31.921Z,25.90
2022-08-02T10:50:20.846Z,26.00
2022-08-02T10:53:29.554Z,25.90
2022-08-02T10:56:19.168Z,25.80
2022-08-02T10:59:26.612Z,25.90
2022-08-02T11:02:35.439Z,26.30
2022-08-02T11:05:42.636Z,26.60
2022-08-02T11:08:33.228Z,26.60
2022-08-02T11:11:53.311Z,26.30
2022-08-02T11:14:31.160Z,25.90
2022-08-02T11:17:21.493Z,25.80
2022-08-02T11:20:19.086Z,25.90
2022-08-02T11:23:44.025Z,26.20
2022-08-02T11:26:45.616Z,26.40
2022-08-02T11:29:38.615Z,26.40
2022-08-02T11:32:30.719Z,26.20
2022-08-02T11:35:19.803Z,26.10
2022-08-02T11:38:19.587Z,26.10
2022-08-02T11:41:10.345Z,26.20
2022-08-02T11:43:59.312Z,26.40
2022-08-02T11:46:55.887Z,26.50
2022-08-02T11:49:47.173Z,26.40
2022-08-02T11:52:36.479Z,26.40
2022-08-02T11:55:29.330Z,26.60
2022-08-02T11:58:18.036Z,26.80
2022-08-02T12:01:07.143Z,27.00
2022-08-02T12:04:00.934Z,27.10
2022-08-02T12:06:59.814Z,27.10
2022-08-02T12:09:48.515Z,27.00
2022-08-02T12:12:49.241Z,27.10
2022-08-02T12:15:41.962Z,27.00
2022-08-02T12:18:59.321Z,27.10
2022-08-02T12:21:48.564Z,27.20
2022-08-02T12:24:39.331Z,27.60
2022-08-02T12:27:32.948Z,28.30
2022-08-02T12:30:27.840Z,28.70
2022-08-02T12:33:16.704Z,28.80
2022-08-02T12:36:15.618Z,29.00
2022-08-02T12:39:04.277Z,29.10
2022-08-02T12:41:59.947Z,28.70
2022-08-02T12:44:53.353Z,28.40
2022-08-02T12:47:48.994Z,28.50
2022-08-02T12:50:38.773Z,28.40
2022-08-02T12:53:34.367Z,28.00
2022-08-02T12:56:30.598Z,27.90
2022-08-02T12:59:38.824Z,28.00
2022-08-02T13:02:28.119Z,28.10
2022-08-02T13:05:16.956Z,28.40
2022-08-02T13:08:06.744Z,28.50
2022-08-02T13:10:55.456Z,28.40
2022-08-02T13:13:44.799Z,28.30
2022-08-02T13:16:35.609Z,28.20
2022-08-02T13:19:24.591Z,28.30
2022-08-02T13:22:13.613Z,28.30
2022-08-02T13:25:03.615Z,28.40
2022-08-02T13:27:52.576Z,28.50
2022-08-02T13:30:41.222Z,28.60
2022-08-02T13:33:31.378Z,28.60
2022-08-02T13:36:20.098Z,29.00
2022-08-02T13:39:09.479Z,29.00
2022-08-02T13:41:58.232Z,28.90
2022-08-02T13:44:46.954Z,28.80
2022-08-02T13:47:36.243Z,28.60
2022-08-02T13:50:45.763Z,28.60
2022-08-02T13:53:34.449Z,28.70
2022-08-02T13:56:35.868Z,28.80
2022-08-02T13:59:57.023Z,28.70
2022-08-02T14:02:40.347Z,28.70
2022-08-02T14:05:39.538Z,28.70
2022-08-02T14:08:39.509Z,28.70
2022-08-02T14:11:28.468Z,28.40
2022-08-02T14:14:17.668Z,28.30
2022-08-02T14:17:06.713Z,28.30
2022-08-02T14:19:55.375Z,28.40
2022-08-02T14:22:44.132Z,28.50
2022-08-02T14:25:34.284Z,28.40
2022-08-02T14:28:22.981Z,28.50
2022-08-02T14:31:14.214Z,28.50
2022-08-02T14:34:02.988Z,28.60
2022-08-02T14:36:53.841Z,28.60
2022-08-02T14:40:02.163Z,28.40
2022-08-02T14:42:52.801Z,28.40
2022-08-02T14:45:41.606Z,28.40
2022-08-02T14:48:30.735Z,28.30
2022-08-02T14:51:19.475Z,28.20
2022-08-02T14:54:11.851Z,28.20
2022-08-02T14:57:05.050Z,28.20
2022-08-02T14:59:55.219Z,28.20
2022-08-02T15:02:43.963Z,28.20
2022-08-02T15:05:32.777Z,28.30
2022-08-02T15:08:21.558Z,28.40
2022-08-02T15:11:10.634Z,28.30
2022-08-02T15:14:00.109Z,28.30
2022-08-02T15:16:58.848Z,28.20
2022-08-02T15:19:57.565Z,28.20
2022-08-02T15:22:49.733Z,28.20
2022-08-02T15:25:41.514Z,28.20
2022-08-02T15:28:31.488Z,28.00
2022-08-02T15:31:30.773Z,28.00
2022-08-02T15:34:23.375Z,28.00
2022-08-02T15:37:12.134Z,28.00
2022-08-02T15:40:01.149Z,28.10
2022-08-02T15:42:50.036Z,28.10
2022-08-02T15:45:38.971Z,28.20
2022-08-02T15:48:27.688Z,28.00
2022-08-02T15:51:18.108Z,27.90
2022-08-02T15:54:10.177Z,28.00
2022-08-02T15:56:58.912Z,28.10
2022-08-02T15:59:47.643Z,28.20
2022-08-02T16:02:36.331Z,28.20
2022-08-02T16:05:25.265Z,28.00
2022-08-02T16:08:15.698Z,27.90
2022-08-02T16:11:04.453Z,27.80
2022-08-02T16:13:54.977Z,27.80
2022-08-02T16:16:44.889Z,27.70
2022-08-02T16:19:48.850Z,27.60
2022-08-02T16:22:38.737Z,27.60
2022-08-02T16:25:28.921Z,27.50
2022-08-02T16:28:17.677Z,27.50
2022-08-02T16:31:11.195Z,27.60
2022-08-02T16:34:00.269Z,27.60
2022-08-02T16:36:48.943Z,27.60
2022-08-02T16:39:37.695Z,27.60
2022-08-02T16:42:27.965Z,27.50
2022-08-02T16:45:16.721Z,27.50
2022-08-02T16:48:09.352Z,27.40
2022-08-02T16:50:58.288Z,27.50
2022-08-02T16:53:59.780Z,27.40
2022-08-02T16:56:58.029Z,27.40
2022-08-02T16:59:57.920Z,27.30
2022-08-02T17:02:47.349Z,27.30
2022-08-02T17:05:37.918Z,27.30
2022-08-02T17:08:54.097Z,27.20
2022-08-02T17:11:46.731Z,27.20
2022-08-02T17:14:55.265Z,27.10
2022-08-02T17:17:45.921Z,27.10
2022-08-02T17:20:34.820Z,27.00
2022-08-02T17:23:23.551Z,26.90
2022-08-02T17:26:32.302Z,26.90
2022-08-02T17:29:22.410Z,26.80
2022-08-02T17:32:12.092Z,26.80
2022-08-02T17:35:03.923Z,26.80
2022-08-02T17:37:54.533Z,26.70
2022-08-02T17:40:48.692Z,26.60
2022-08-02T17:43:41.045Z,26.60
2022-08-02T17:46:29.939Z,26.50
2022-08-02T17:49:20.974Z,26.40
2022-08-02T17:52:49.072Z,26.30
2022-08-02T17:55:20.070Z,26.30
2022-08-02T17:58:12.739Z,26.20
2022-08-02T18:01:01.536Z,26.20
2022-08-02T18:03:50.445Z,26.20
2022-08-02T18:06:47.847Z,26.10
2022-08-02T18:09:41.502Z,26.10
2022-08-02T18:12:32.295Z,26.00
2022-08-02T18:15:21.792Z,25.90
2022-08-02T18:18:10.529Z,25.80
2022-08-02T18:21:22.206Z,25.80
2022-08-02T18:24:10.598Z,25.70
2022-08-02T18:27:01.146Z,25.70
2022-08-02T18:30:00.033Z,25.60
2022-08-02T18:33:59.085Z,25.60
2022-08-02T18:36:02.010Z,25.50
2022-08-02T18:38:50.749Z,25.40
2022-08-02T18:41:39.865Z,25.30
2022-08-02T18:44:31.222Z,25.30
2022-08-02T18:47:20.357Z,25.10
2022-08-02T18:50:11.426Z,25.00
2022-08-02T18:53:00.863Z,24.90
2022-08-02T18:55:59.804Z,24.80
2022-08-02T18:58:52.001Z,24.60
2022-08-02T19:01:48.869Z,24.40
2022-08-02T19:04:43.710Z,24.30
2022-08-02T19:07:50.283Z,24.20
2022-08-02T19:10:49.251Z,24.10
2022-08-02T19:13:42.356Z,24.00
2022-08-02T19:16:36.826Z,23.80
2022-08-02T19:19:28.742Z,23.70
2022-08-02T19:22:20.174Z,23.60
2022-08-02T19:25:16.979Z,23.40
2022-08-02T19:28:06.195Z,23.40
2022-08-02T19:30:57.218Z,23.30
2022-08-02T19:34:06.587Z,23.20
2022-08-02T19:36:56.030Z,23.20
2022-08-02T19:39:45.890Z,23.00
2022-08-02T19:44:20.400Z,22.90
2022-08-02T19:45:50.125Z,22.90
2022-08-02T19:48:41.105Z,22.80
2022-08-02T19:51:54.666Z,22.80
2022-08-02T19:54:55.829Z,22.70
2022-08-02T19:57:45.395Z,22.70
2022-08-02T20:00:36.238Z,22.70
2022-08-02T20:03:50.971Z,22.60
2022-08-02T20:06:33.689Z,22.50
2022-08-02T20:09:33.562Z,22.50
2022-08-02T20:12:37.722Z,22.50
2022-08-02T20:15:51.680Z,22.50
2022-08-02T20:18:35.753Z,22.40
2022-08-02T20:21:35.460Z,22.40
2022-08-02T20:24:26.701Z,22.20
2022-08-02T20:27:21.190Z,22.20
2022-08-02T20:30:15.710Z,22.10
2022-08-02T20:33:21.027Z,22.00
2022-08-02T20:36:13.278Z,21.90
2022-08-02T20:39:04.330Z,21.90
2022-08-02T20:42:22.854Z,21.90
2022-08-02T20:45:14.518Z,22.00
2022-08-02T20:48:14.681Z,22.00
2022-08-02T20:51:09.704Z,22.10
2022-08-02T20:54:14.824Z,22.10
2022-08-02T20:57:14.635Z,22.00
2022-08-02T21:00:06.801Z,21.90
2022-08-02T21:03:09.179Z,21.90
2022-08-02T21:09:14.893Z,22.00
2022-08-02T21:12:35.481Z,22.10
2022-08-02T21:15:55.473Z,22.20
2022-08-02T21:18:49.037Z,22.20
2022-08-02T21:21:47.941Z,22.10
2022-08-02T21:24:47.414Z,22.00
2022-08-02T21:27:51.579Z,21.90
2022-08-02T21:31:08.369Z,21.80
2022-08-02T21:34:22.523Z,21.70
2022-08-02T21:37:33.307Z,21.60
2022-08-02T21:40:37.280Z,21.50
2022-08-02T21:46:07.441Z,21.50
2022-08-02T21:49:08.626Z,21.60
2022-08-02T21:52:17.776Z,21.50
2022-08-02T21:55:07.928Z,21.40
2022-08-02T21:58:20.028Z,21.40
2022-08-02T22:01:38.588Z,21.30
2022-08-02T22:05:03.585Z,21.30
2022-08-02T22:07:52.364Z,21.20
2022-08-02T22:11:03.294Z,21.10
2022-08-02T22:13:52.162Z,21.10
2022-08-02T22:16:59.263Z,21.00
2022-08-02T22:19:53.889Z,21.00
2022-08-02T22:23:00.402Z,20.90
2022-08-02T22:25:50.039Z,20.90
2022-08-02T22:28:59.594Z,20.90
2022-08-02T22:31:48.591Z,20.90
2022-08-02T22:34:57.263Z,20.90
2022-08-02T22:41:02.719Z,21.00
2022-08-02T22:48:20.473Z,21.00
2022-08-02T22:51:09.893Z,20.90
2022-08-02T22:54:19.406Z,20.90
2022-08-02T23:00:19.887Z,20.80
2022-08-02T23:03:08.783Z,20.80
2022-08-02T23:09:00.381Z,20.70
2022-08-02T23:11:49.141Z,20.70
2022-08-02T23:15:00.918Z,20.70
2022-08-02T23:22:01.142Z,20.70
2022-08-02T23:25:02.617Z,20.60
2022-08-02T23:28:23.184Z,20.60
2022-08-02T23:35:45.474Z,20.60
2022-08-02T23:45:07.183Z,20.50
2022-08-02T23:53:47.350Z,20.60
